Time;durP1;ratioP1;P1;durP2;ratioP2;P2;SDS_P1;SDS_P2;PMS_P1;PMS_P2;Temp;Humidity;BMP_temperature;BMP_pressure;BME280_temperature;BME280_humidity;BME280_pressure;Samples;Min_cycle;Max_cycle;Signal;HPM_P1;HPM_P2
2022/05/27 00:00:29;;;;;;;6.87;5.17;;;;;;;15.18;85.43;98706.38;4160711;28;20652;-86
2022/05/27 00:02:33;;;;;;;8.90;5.40;;;;;;;15.14;86.09;98714.59;4186895;28;20638;-86
2022/05/27 00:04:37;;;;;;;7.83;5.37;;;;;;;15.14;86.78;98714.59;4171199;28;20628;-86
2022/05/27 00:06:41;;;;;;;6.90;5.20;;;;;;;15.12;85.75;98713.84;4192028;28;20684;-87
2022/05/27 00:08:47;;;;;;;6.13;5.37;;;;;;;15.06;86.70;98710.84;4162214;28;20644;-88
2022/05/27 00:10:55;;;;;;;9.70;5.20;;;;;;;15.00;86.46;98704.28;4174251;28;20753;-88
2022/05/27 00:12:58;;;;;;;9.30;5.43;;;;;;;14.97;86.12;98712.38;4174503;28;20621;-90
2022/05/27 00:15:02;;;;;;;26.40;20.80;;;;;;;14.94;86.99;98707.34;4158454;28;20629;-88
2022/05/27 00:17:05;;;;;;;15.43;12.10;;;;;;;14.96;87.31;98700.22;4185247;28;21106;-88
2022/05/27 00:19:08;;;;;;;7.87;6.50;;;;;;;14.96;87.06;98700.22;4158601;28;21254;-89
2022/05/27 00:21:12;;;;;;;7.70;5.57;;;;;;;14.95;87.01;98698.53;4172917;28;20639;-88
2022/05/27 00:23:16;;;;;;;9.77;6.50;;;;;;;14.96;87.24;98700.22;4158132;28;20628;-88
2022/05/27 00:25:21;;;;;;;7.43;5.60;;;;;;;15.00;86.56;98706.06;4174834;28;20667;-90
2022/05/27 00:27:25;;;;;;;6.33;5.60;;;;;;;15.03;86.73;98711.91;4189824;28;20662;-92
2022/05/27 00:29:28;;;;;;;6.73;5.77;;;;;;;15.04;87.12;98705.72;4168011;28;20646;-91
2022/05/27 00:31:52;;;;;;;8.47;6.33;;;;;;;15.05;87.26;98707.41;4190499;28;20647;-90
2022/05/27 00:33:58;;;;;;;10.87;6.00;;;;;;;15.03;87.21;98705.84;4174233;28;20643;-88
2022/05/27 00:36:01;;;;;;;7.20;5.90;;;;;;;15.04;85.95;98702.28;4155705;28;20688;-88
2022/05/27 00:38:04;;;;;;;6.50;5.20;;;;;;;15.00;86.21;98698.19;4190682;28;21258;-88
2022/05/27 00:40:10;;;;;;;6.60;4.97;;;;;;;14.91;86.00;98696.25;4160014;28;20676;-88
2022/05/27 00:42:14;;;;;;;5.13;4.60;;;;;;;14.80;84.98;98697.06;4185517;28;20673;-88
2022/05/27 00:44:17;;;;;;;9.23;5.83;;;;;;;14.72;87.04;98683.69;4175157;28;20697;-89
2022/05/27 00:46:23;;;;;;;10.30;5.60;;;;;;;14.74;86.13;98686.19;4167507;28;20712;-89
2022/05/27 00:48:27;;;;;;;8.30;5.50;;;;;;;14.72;86.65;98685.50;4169684;28;20667;-88
2022/05/27 00:50:33;;;;;;;8.63;5.20;;;;;;;14.73;86.85;98685.38;4169785;28;20978;-88
2022/05/27 00:52:37;;;;;;;6.70;5.27;;;;;;;14.77;86.63;98688.59;4170757;28;20710;-88
2022/05/27 00:54:41;;;;;;;7.03;5.33;;;;;;;14.80;86.34;98683.94;4157138;28;20645;-88
2022/05/27 00:56:46;;;;;;;10.50;5.20;;;;;;;14.85;85.90;98671.28;4173162;28;20654;-87
2022/05/27 00:58:54;;;;;;;8.67;5.40;;;;;;;14.88;86.83;98668.41;4171247;28;21022;-87
2022/05/27 01:00:57;;;;;;;8.60;5.53;;;;;;;14.92;86.87;98671.69;4156944;28;20641;-88
2022/05/27 01:03:01;;;;;;;8.03;4.80;;;;;;;14.96;86.10;98666.06;4155545;28;20673;-88
2022/05/27 01:05:06;;;;;;;7.07;4.63;;;;;;;15.01;86.23;98666.53;4156868;28;20738;-88
2022/05/27 01:07:09;;;;;;;6.73;4.70;;;;;;;15.00;85.98;98667.50;4176674;28;20647;-88
2022/05/27 01:09:14;;;;;;;8.30;5.40;;;;;;;14.99;85.86;98668.47;4160221;28;20650;-88
2022/05/27 01:11:25;;;;;;;7.47;5.30;;;;;;;14.97;87.06;98665.09;4174690;28;20679;-88
2022/05/27 01:13:39;;;;;;;7.47;5.40;;;;;;;14.91;86.28;98665.56;4174965;28;20652;-87
2022/05/27 01:15:50;;;;;;;6.20;4.67;;;;;;;14.95;86.70;98671.44;4189030;28;20658;-89
2022/05/27 01:18:04;;;;;;;8.83;4.27;;;;;;;14.95;85.91;98674.91;4159027;28;20637;-88
2022/05/27 01:20:21;;;;;;;5.33;3.90;;;;;;;14.96;85.87;98673.94;4171683;28;20645;-87
2022/05/27 01:22:43;;;;;;;5.40;4.23;;;;;;;14.97;86.34;98677.41;4169673;28;20631;-90
2022/05/27 01:25:06;;;;;;;6.23;4.30;;;;;;;14.92;86.48;98669.06;4170791;28;20644;-88
2022/05/27 01:27:27;;;;;;;6.87;4.80;;;;;;;14.87;85.73;98674.66;4170742;28;20727;-89
2022/05/27 01:29:56;;;;;;;6.30;4.03;;;;;;;14.83;85.80;98672.38;4186908;28;20681;-89
2022/05/27 01:32:29;;;;;;;5.70;4.27;;;;;;;14.74;86.23;98666.00;4169078;28;20650;-88
2022/05/27 01:34:43;;;;;;;7.97;5.23;;;;;;;14.70;86.44;98672.47;4156055;28;20641;-88
2022/05/27 01:36:48;;;;;;;6.77;4.57;;;;;;;14.67;86.77;98664.81;4172135;28;20713;-88
2022/05/27 01:38:59;;;;;;;5.63;3.90;;;;;;;14.66;86.85;98671.03;4168532;28;20631;-88
2022/05/27 01:41:08;;;;;;;9.00;4.07;;;;;;;14.67;87.36;98672.69;4190177;28;20643;-88
2022/05/27 01:43:17;;;;;;;5.13;4.63;;;;;;;14.65;86.76;98664.09;4167391;28;20667;-88
2022/05/27 01:45:24;;;;;;;5.57;4.47;;;;;;;14.65;87.27;98666.72;4172547;28;21060;-88
2022/05/27 01:47:32;;;;;;;6.37;3.53;;;;;;;14.58;87.62;98664.66;4152472;28;20667;-88
2022/05/27 01:49:38;;;;;;;5.07;3.70;;;;;;;14.61;87.21;98670.53;4186046;28;21204;-88
2022/05/27 01:51:44;;;;;;;6.07;4.27;;;;;;;14.60;86.75;98665.41;4158920;28;20646;-87
2022/05/27 01:53:52;;;;;;;3.53;2.97;;;;;;;14.61;87.16;98667.06;4155454;28;20640;-88
2022/05/27 01:56:01;;;;;;;8.60;3.70;;;;;;;14.67;87.50;98654.31;4172539;28;20649;-89
2022/05/27 01:58:09;;;;;;;5.30;3.83;;;;;;;14.70;87.22;98658.47;4168309;28;20731;-87
2022/05/27 02:00:15;;;;;;;6.00;3.10;;;;;;;14.70;87.16;98651.47;4168183;28;20677;-88
2022/05/27 02:02:22;;;;;;;4.60;3.70;;;;;;;14.72;86.50;98659.22;4172932;28;20631;-89
2022/05/27 02:04:31;;;;;;;5.10;4.13;;;;;;;14.71;86.99;98657.53;4169087;28;20640;-88
2022/05/27 02:06:37;;;;;;;4.70;3.20;;;;;;;14.68;87.13;98655.16;4190393;28;20626;-88
2022/05/27 02:08:44;;;;;;;4.80;3.90;;;;;;;14.57;87.14;98656.91;4172263;28;20658;-89
2022/05/27 02:10:51;;;;;;;4.53;3.40;;;;;;;14.51;86.78;98649.47;4168433;28;20643;-88
2022/05/27 02:12:58;;;;;;;4.20;3.50;;;;;;;14.51;86.99;98660.84;4155255;28;20670;-89
2022/05/27 02:15:04;;;;;;;5.53;3.77;;;;;;;14.46;87.26;98657.69;4168290;28;20644;-88
2022/05/27 02:17:09;;;;;;;5.17;4.10;;;;;;;14.38;87.65;98651.38;4168172;28;21310;-88
2022/05/27 02:19:15;;;;;;;6.93;4.13;;;;;;;14.31;87.20;98651.00;4182415;28;20639;-88
2022/05/27 02:21:25;;;;;;;8.10;3.40;;;;;;;14.27;87.74;98640.84;4153550;28;21229;-88
2022/05/27 02:23:32;;;;;;;5.23;3.80;;;;;;;14.24;87.52;98648.94;4171785;28;20970;-88
2022/05/27 02:25:37;;;;;;;7.93;3.37;;;;;;;14.24;87.72;98646.31;4154467;28;20633;-88
2022/05/27 02:27:42;;;;;;;5.50;4.03;;;;;;;14.23;87.75;98634.13;4154946;28;21205;-88
2022/05/27 02:29:48;;;;;;;8.30;3.80;;;;;;;14.22;88.00;98635.06;4158617;28;20664;-87
2022/05/27 02:31:55;;;;;;;4.60;3.70;;;;;;;14.20;87.92;98634.34;4171137;28;20672;-88
2022/05/27 02:36:28;;;;;;;4.67;4.10;;;;;;;14.17;88.02;98634.59;4183047;28;20639;-87
2022/05/27 02:38:32;;;;;;;5.30;4.30;;;;;;;14.18;88.85;98636.28;4171979;28;21091;-89
2022/05/27 02:40:38;;;;;;;4.53;3.60;;;;;;;14.20;88.53;98629.13;4154671;28;20655;-88
2022/05/27 02:42:57;;;;;;;6.10;4.60;;;;;;;14.19;88.50;98632.69;4171170;28;20742;-88
2022/05/27 02:45:10;;;;;;;6.00;4.20;;;;;;;14.18;88.72;98631.03;4167584;28;20646;-88
2022/05/27 02:47:17;;;;;;;4.90;4.33;;;;;;;14.18;88.21;98621.34;4169864;28;20723;-88
2022/05/27 02:49:26;;;;;;;6.57;4.90;;;;;;;14.17;88.90;98619.66;4173474;28;20645;-88
2022/05/27 02:51:40;;;;;;;4.20;3.80;;;;;;;14.22;88.92;98629.81;4190054;28;20623;-87
2022/05/27 02:53:46;;;;;;;6.97;3.73;;;;;;;14.22;89.39;98635.94;4172284;28;20654;-88
2022/05/27 02:56:02;;;;;;;5.90;4.33;;;;;;;14.22;87.95;98627.19;4153023;28;20711;-87
2022/05/27 02:58:05;;;;;;;5.70;4.00;;;;;;;14.19;88.43;98627.44;4171706;28;20662;-88
2022/05/27 03:00:11;;;;;;;5.40;4.07;;;;;;;14.11;88.02;98626.34;4188129;28;20641;-87
2022/05/27 03:02:16;;;;;;;6.43;4.20;;;;;;;14.04;88.09;98622.44;4153796;28;20656;-88
2022/05/27 03:04:21;;;;;;;5.37;4.40;;;;;;;14.05;88.40;98630.25;4153040;28;20648;-88
2022/05/27 03:06:42;;;;;;;5.37;4.13;;;;;;;14.08;88.95;98626.56;4155569;28;20647;-88
2022/05/27 03:08:53;;;;;;;7.40;3.97;;;;;;;14.12;88.84;98617.50;4169409;28;21117;-88
2022/05/27 03:11:04;;;;;;;5.30;3.90;;;;;;;14.14;88.99;98613.81;4184706;28;20731;-89
2022/05/27 03:13:38;;;;;;;5.87;3.60;;;;;;;14.15;89.07;98611.09;4152732;28;20635;-88
2022/05/27 03:15:51;;;;;;;4.60;3.23;;;;;;;14.21;88.72;98620.31;4160494;28;21237;-90
2022/05/27 03:18:07;;;;;;;5.03;3.57;;;;;;;14.22;88.66;98619.34;4174817;28;21698;-91
2022/05/27 03:20:18;;;;;;;8.30;4.73;;;;;;;14.25;88.82;98626.97;4174423;28;20686;-91
2022/05/27 03:22:31;;;;;;;6.93;4.13;;;;;;;14.28;89.94;98621.50;4161048;28;21562;-89
2022/05/27 03:24:51;;;;;;;6.87;3.50;;;;;;;14.30;90.03;98624.88;4160907;28;20660;-89
2022/05/27 03:27:03;;;;;;;4.20;3.23;;;;;;;14.28;90.33;98627.59;4159921;28;20637;-88
2022/05/27 03:29:13;;;;;;;6.33;3.57;;;;;;;14.25;90.93;98624.34;4190711;28;20621;-86
2022/05/27 03:31:28;;;;;;;6.40;5.27;;;;;;;14.30;91.54;98624.88;4176640;28;20834;-86
2022/05/27 03:33:37;;;;;;;6.13;3.90;;;;;;;14.40;90.98;98631.09;4158246;28;20670;-85
2022/05/27 03:35:49;;;;;;;5.67;3.80;;;;;;;14.43;89.93;98636.94;4179076;28;20674;-87
2022/05/27 03:37:58;;;;;;;4.50;3.33;;;;;;;14.47;89.72;98632.31;4171109;28;20669;-86
2022/05/27 03:40:07;;;;;;;5.87;3.70;;;;;;;14.53;89.93;98629.22;4174995;28;20676;-91
2022/05/27 03:42:11;;;;;;;4.80;3.80;;;;;;;14.54;91.33;98623.00;4197113;28;21267;-89
2022/05/27 03:44:15;;;;;;;5.13;3.30;;;;;;;14.56;90.63;98624.56;4161124;28;20633;-88
2022/05/27 03:46:28;;;;;;;4.43;3.40;;;;;;;14.60;90.78;98632.09;4171447;28;20628;-89
2022/05/27 03:48:33;;;;;;;6.30;3.90;;;;;;;14.63;90.04;98628.41;4150608;28;20740;-88
2022/05/27 03:50:37;;;;;;;5.37;3.70;;;;;;;14.65;91.13;98627.31;4191173;28;21292;-89
2022/05/27 03:52:42;;;;;;;3.93;3.53;;;;;;;14.76;91.59;98637.00;4194143;28;20679;-91
2022/05/27 03:54:46;;;;;;;4.80;3.47;;;;;;;14.79;90.51;98635.00;4155638;28;20694;-89
2022/05/27 03:56:50;;;;;;;4.63;3.37;;;;;;;14.88;90.61;98636.91;4175168;28;20685;-89
2022/05/27 03:58:53;;;;;;;4.53;3.80;;;;;;;14.95;91.26;98637.28;4172055;28;20659;-90
2022/05/27 04:00:56;;;;;;;5.33;3.40;;;;;;;14.99;91.00;98636.09;4173808;28;20786;-89
2022/05/27 04:03:00;;;;;;;4.97;3.63;;;;;;;15.05;90.81;98632.97;4158706;28;20628;-90
2022/05/27 04:05:03;;;;;;;6.97;3.90;;;;;;;15.12;91.16;98635.00;4187970;28;20633;-89
2022/05/27 04:07:07;;;;;;;4.63;3.80;;;;;;;15.20;90.36;98641.41;4154493;28;20628;-89
2022/05/27 04:09:10;;;;;;;4.73;4.27;;;;;;;15.28;91.50;98636.38;4161134;28;21223;-90
2022/05/27 04:11:15;;;;;;;3.60;2.90;;;;;;;15.34;90.87;98643.78;4161214;28;20750;-89
2022/05/27 04:13:18;;;;;;;4.27;3.57;;;;;;;15.42;91.10;98640.53;4189182;28;20719;-89
2022/05/27 04:15:22;;;;;;;5.23;3.70;;;;;;;15.46;89.15;98639.34;4157843;28;20640;-89
2022/05/27 04:17:31;;;;;;;5.00;3.60;;;;;;;15.53;89.17;98646.63;4181253;28;20642;-89
2022/05/27 04:19:34;;;;;;;4.97;3.27;;;;;;;15.58;90.64;98644.47;4160835;28;20644;-88
2022/05/27 04:21:38;;;;;;;4.67;3.50;;;;;;;15.62;88.92;98649.38;4166224;28;20679;-89
2022/05/27 04:23:41;;;;;;;4.27;2.87;;;;;;;15.68;88.48;98654.13;4173826;28;20731;-89
2022/05/27 04:25:46;;;;;;;5.50;3.40;;;;;;;15.73;89.33;98645.88;4154504;28;20636;-89
2022/05/27 04:27:52;;;;;;;4.90;3.57;;;;;;;15.79;89.57;98651.47;4160563;28;20637;-89
2022/05/27 04:29:55;;;;;;;4.17;3.60;;;;;;;15.84;89.30;98653.75;4153065;28;20730;-88
2022/05/27 04:32:20;;;;;;;4.87;3.20;;;;;;;15.91;88.67;98655.75;4171978;28;21431;-88
2022/05/27 04:34:23;;;;;;;6.83;3.60;;;;;;;15.96;88.64;98652.75;4187554;28;20636;-89
2022/05/27 04:36:27;;;;;;;5.43;3.40;;;;;;;15.98;88.53;98642.94;4172205;28;20641;-88
2022/05/27 04:38:30;;;;;;;7.17;3.40;;;;;;;15.98;87.53;98649.03;4172043;28;20667;-90
2022/05/27 04:40:34;;;;;;;4.90;3.50;;;;;;;16.05;87.51;98651.03;4157283;28;20661;-88
2022/05/27 04:42:37;;;;;;;4.73;3.40;;;;;;;16.09;87.87;98649.00;4174579;28;20684;-89
2022/05/27 04:45:00;;;;;;;6.43;3.90;;;;;;;16.13;87.53;98664.44;4176431;28;20676;-91
2022/05/27 04:47:05;;;;;;;4.83;3.60;;;;;;;16.19;87.71;98656.03;4159626;28;20695;-90
2022/05/27 04:49:08;;;;;;;5.10;3.47;;;;;;;16.22;88.51;98655.81;4157691;28;21243;-91
2022/05/27 04:51:11;;;;;;;5.20;3.50;;;;;;;16.25;87.27;98655.56;4161757;28;21247;-91
2022/05/27 04:53:15;;;;;;;11.07;4.90;;;;;;;16.31;87.55;98654.22;4172358;28;20755;-90
2022/05/27 04:55:19;;;;;;;5.03;3.60;;;;;;;16.35;86.33;98659.09;4176340;28;20640;-91
2022/05/27 04:57:23;;;;;;;7.33;3.97;;;;;;;16.39;88.43;98665.78;4160935;28;21180;-91
2022/05/27 04:59:27;;;;;;;7.67;4.67;;;;;;;16.42;87.11;98656.78;4189245;28;20656;-90
2022/05/27 05:01:32;;;;;;;6.40;4.10;;;;;;;16.43;87.69;98655.84;4161043;28;20637;-90
2022/05/27 05:03:36;;;;;;;5.00;3.90;;;;;;;16.47;88.53;98663.34;4169156;28;20739;-91
2022/05/27 05:05:40;;;;;;;5.80;4.07;;;;;;;16.50;86.67;98665.75;4154205;28;20644;-91
2022/05/27 05:07:45;;;;;;;4.90;3.83;;;;;;;16.50;86.44;98665.75;4158101;28;21019;-90
2022/05/27 05:09:54;;;;;;;5.93;4.17;;;;;;;16.50;86.68;98661.28;4156194;28;20651;-90
2022/05/27 05:11:57;;;;;;;7.63;4.30;;;;;;;16.52;86.85;98662.03;4160187;28;20622;-91
2022/05/27 05:14:00;;;;;;;4.90;3.90;;;;;;;16.54;86.63;98665.34;4186333;28;20725;-91
2022/05/27 05:16:04;;;;;;;5.30;4.33;;;;;;;16.54;86.01;98667.16;4163374;28;20644;-91
2022/05/27 05:18:09;;;;;;;6.13;4.40;;;;;;;16.57;86.64;98666.91;4186052;28;20727;-91
2022/05/27 05:20:15;;;;;;;5.73;4.07;;;;;;;16.57;87.25;98656.38;4170684;28;20729;-91
2022/05/27 05:22:18;;;;;;;5.90;4.50;;;;;;;16.57;85.65;98667.75;4172122;28;20690;-91
2022/05/27 05:24:21;;;;;;;6.70;4.17;;;;;;;16.59;86.48;98672.88;4174057;28;20743;-90
2022/05/27 05:26:25;;;;;;;5.13;3.93;;;;;;;16.61;86.16;98677.06;4158663;28;21030;-91
2022/05/27 05:28:28;;;;;;;7.93;4.40;;;;;;;16.63;85.90;98683.03;4157458;28;21193;-90
2022/05/27 05:30:31;;;;;;;5.70;4.20;;;;;;;16.62;86.91;98677.91;4172324;28;21005;-90
2022/05/27 05:32:34;;;;;;;5.13;4.07;;;;;;;16.62;86.48;98689.25;4171948;28;20625;-92
2022/05/27 05:34:39;;;;;;;5.60;4.30;;;;;;;16.68;87.38;98685.28;4173809;28;20652;-90
2022/05/27 05:36:42;;;;;;;5.50;4.50;;;;;;;16.66;85.94;98685.41;4169822;28;20747;-89
2022/05/27 05:38:46;;;;;;;8.03;4.80;;;;;;;16.68;87.15;98683.47;4171454;28;20672;-89
2022/05/27 05:40:49;;;;;;;8.20;4.40;;;;;;;16.73;85.69;98681.31;4171342;28;20672;-89
2022/05/27 05:42:52;;;;;;;6.10;4.30;;;;;;;16.77;87.73;98684.53;4159633;28;20725;-90
2022/05/27 05:44:58;;;;;;;6.97;5.00;;;;;;;16.81;85.86;98686.78;4174119;28;20632;-89
2022/05/27 05:47:03;;;;;;;9.20;4.90;;;;;;;16.82;85.15;98691.06;4158771;28;20633;-89
2022/05/27 05:49:06;;;;;;;7.63;4.63;;;;;;;16.80;85.88;98679.81;4168292;28;20645;-90
2022/05/27 05:51:11;;;;;;;7.50;5.03;;;;;;;16.81;86.88;98685.91;4153768;28;20703;-90
2022/05/27 05:53:14;;;;;;;6.03;4.67;;;;;;;16.76;85.14;98678.41;4191754;28;21244;-88
2022/05/27 05:55:18;;;;;;;8.80;5.27;;;;;;;16.78;86.24;98686.16;4153362;28;21186;-89
2022/05/27 05:57:22;;;;;;;8.57;5.30;;;;;;;16.76;86.17;98682.84;4168303;28;21030;-89
2022/05/27 05:59:29;;;;;;;7.43;4.80;;;;;;;16.73;85.57;98686.59;4159159;28;20665;-87
2022/05/27 06:01:32;;;;;;;7.37;5.07;;;;;;;16.73;85.00;98698.91;4189892;28;20708;-89
2022/05/27 06:03:35;;;;;;;9.63;5.37;;;;;;;16.74;87.02;98697.94;4194152;28;20643;-90
2022/05/27 06:05:41;;;;;;;9.60;5.03;;;;;;;16.71;87.17;98690.31;4165817;28;20686;-89
2022/05/27 06:07:46;;;;;;;7.83;5.23;;;;;;;16.67;86.13;98688.88;4188783;28;20627;-89
2022/05/27 06:09:49;;;;;;;9.90;5.33;;;;;;;16.64;84.85;98684.72;4143874;28;21332;-89
2022/05/27 06:11:53;;;;;;;8.97;6.10;;;;;;;16.62;85.05;98694.53;4196581;28;20719;-92
2022/05/27 06:13:56;;;;;;;10.03;6.00;;;;;;;16.63;86.81;98692.75;4167153;28;20633;-92
2022/05/27 06:16:00;;;;;;;12.97;8.57;;;;;;;16.63;85.88;98690.09;4179038;28;20637;-92
2022/05/27 06:18:04;;;;;;;8.70;5.50;;;;;;;16.62;85.69;98688.44;4190666;28;21174;-90
2022/05/27 06:20:25;;;;;;;10.20;5.50;;;;;;;16.62;85.46;98696.31;4206116;28;20663;-91
2022/05/27 06:22:29;;;;;;;7.50;5.77;;;;;;;16.59;86.95;98691.31;4178306;28;20607;-89
2022/05/27 06:24:34;;;;;;;7.80;4.97;;;;;;;16.62;87.66;98697.16;4188371;28;20645;-88
2022/05/27 06:26:38;;;;;;;7.93;5.03;;;;;;;16.63;87.11;98690.94;4180376;28;20676;-89
2022/05/27 06:35:44;;;;;;;9.67;5.20;;;;;;;16.66;85.29;98695.94;4160135;28;20633;-88
2022/05/27 06:37:48;;;;;;;6.77;5.57;;;;;;;16.64;85.58;98689.13;4157248;28;20739;-88
2022/05/27 06:39:53;;;;;;;10.87;8.83;;;;;;;16.65;86.30;98696.06;4153866;28;21223;-88
2022/05/27 06:41:56;;;;;;;8.77;5.90;;;;;;;16.63;87.28;98690.94;4192572;28;20635;-88
2022/05/27 06:44:07;;;;;;;10.57;6.67;;;;;;;16.69;87.86;98698.34;4171458;28;20637;-86
2022/05/27 06:46:11;;;;;;;6.80;4.93;;;;;;;16.71;85.79;98700.84;4159013;28;20637;-87
2022/05/27 06:48:14;;;;;;;8.07;5.33;;;;;;;16.69;87.00;98698.34;4161203;28;20649;-87
2022/05/27 06:50:37;;;;;;;11.43;5.53;;;;;;;16.69;86.38;98711.50;4189177;28;20635;-88
2022/05/27 06:52:55;;;;;;;8.20;4.93;;;;;;;16.68;85.01;98704.56;4155634;28;20645;-87
2022/05/27 06:55:00;;;;;;;10.00;7.27;;;;;;;16.69;86.30;98697.50;4153394;28;20629;-87
2022/05/27 06:57:05;;;;;;;8.10;6.30;;;;;;;16.69;87.31;98700.97;4172206;28;20665;-88
2022/05/27 06:59:09;;;;;;;11.40;7.80;;;;;;;16.72;87.57;98702.53;4157629;28;20665;-87
2022/05/27 07:01:12;;;;;;;6.83;5.47;;;;;;;16.73;85.75;98707.66;4169143;28;20635;-88
2022/05/27 07:03:16;;;;;;;7.03;5.10;;;;;;;16.71;85.57;98703.47;4188444;28;20633;-88
2022/05/27 07:05:19;;;;;;;9.40;5.90;;;;;;;16.69;87.27;98700.97;4174107;28;20628;-90
2022/05/27 07:07:26;;;;;;;7.90;5.70;;;;;;;16.71;86.11;98704.28;4189169;28;20641;-90
2022/05/27 07:09:30;;;;;;;8.13;4.97;;;;;;;16.68;86.05;98691.38;4156260;28;20677;-89
2022/05/27 07:11:35;;;;;;;6.40;5.10;;;;;;;16.68;84.59;98696.66;4153492;28;20630;-89
2022/05/27 07:13:38;;;;;;;7.37;4.60;;;;;;;16.68;85.63;98701.91;4173401;28;20634;-90
2022/05/27 07:15:43;;;;;;;9.40;4.50;;;;;;;16.65;84.29;98706.63;4155788;28;20669;-89
2022/05/27 07:17:51;;;;;;;11.33;4.70;;;;;;;16.65;84.44;98715.34;4171163;28;20635;-89
2022/05/27 07:19:55;;;;;;;8.27;4.50;;;;;;;16.61;84.74;98708.69;4152142;28;21036;-89
2022/05/27 07:21:59;;;;;;;10.80;4.90;;;;;;;16.62;85.95;98702.44;4166543;28;20629;-91
2022/05/27 07:24:02;;;;;;;5.40;4.10;;;;;;;16.62;85.23;98712.13;4160933;28;20630;-91
2022/05/27 07:26:06;;;;;;;9.70;4.83;;;;;;;16.60;83.74;98701.72;4191719;28;20632;-90
2022/05/27 07:28:12;;;;;;;9.23;3.97;;;;;;;16.61;84.68;98703.41;4153174;28;20728;-91
2022/05/27 07:30:16;;;;;;;6.80;5.20;;;;;;;16.64;84.47;98697.03;4150654;28;20615;-87
2022/05/27 07:32:19;;;;;;;7.10;5.80;;;;;;;16.64;85.04;98700.53;4158126;28;20630;-91
2022/05/27 07:34:22;;;;;;;4.60;3.97;;;;;;;16.64;83.64;98705.78;4189691;28;20629;-89
2022/05/27 07:36:25;;;;;;;4.83;3.97;;;;;;;16.62;83.97;98693.69;4189393;28;20636;-88
2022/05/27 07:38:29;;;;;;;5.80;4.53;;;;;;;16.66;83.36;98706.50;4155980;28;20776;-89
2022/05/27 07:40:33;;;;;;;6.33;4.37;;;;;;;16.68;84.66;98701.91;4158506;28;20655;-89
2022/05/27 07:42:37;;;;;;;7.70;4.43;;;;;;;16.75;83.87;98703.09;4166969;28;20650;-87
2022/05/27 07:44:44;;;;;;;5.23;4.07;;;;;;;16.79;83.77;98704.50;4158976;28;20712;-87
2022/05/27 07:46:47;;;;;;;5.13;4.37;;;;;;;16.85;84.76;98700.53;4189377;28;20638;-87
2022/05/27 07:48:51;;;;;;;6.10;4.17;;;;;;;16.85;84.56;98703.97;4171638;28;20617;-87
2022/05/27 07:51:14;;;;;;;5.00;4.43;;;;;;;16.91;82.93;98702.63;4154629;28;20618;-87
2022/05/27 07:53:18;;;;;;;9.00;4.37;;;;;;;16.94;84.26;98697.13;4150662;28;20657;-91
2022/05/27 07:55:22;;;;;;;7.20;4.80;;;;;;;16.97;84.04;98696.84;4176002;28;20635;-89
2022/05/27 07:57:25;;;;;;;10.17;4.97;;;;;;;16.96;83.30;98696.03;4176021;28;20630;-90
2022/05/27 07:59:28;;;;;;;8.13;4.43;;;;;;;16.99;82.42;98701.03;4150284;28;21574;-89
2022/05/27 08:01:33;;;;;;;7.13;4.73;;;;;;;16.98;83.69;98695.91;4157974;28;20693;-90
2022/05/27 08:03:36;;;;;;;5.87;5.00;;;;;;;16.98;83.66;98700.19;4187630;28;20643;-89
2022/05/27 08:05:40;;;;;;;8.00;4.70;;;;;;;16.98;84.43;98704.63;4180890;28;20651;-91
2022/05/27 08:07:44;;;;;;;5.90;4.80;;;;;;;17.00;83.04;98702.69;4189551;28;21197;-89
2022/05/27 08:09:48;;;;;;;5.47;4.10;;;;;;;17.02;83.41;98706.06;4172920;28;20659;-90
2022/05/27 08:12:11;;;;;;;5.27;3.80;;;;;;;17.05;83.92;98700.53;4186444;28;20636;-90
2022/05/27 08:14:14;;;;;;;6.30;4.33;;;;;;;17.07;83.49;98703.84;4170956;28;20761;-91
2022/05/27 08:16:17;;;;;;;5.87;3.97;;;;;;;17.07;83.11;98695.94;4151529;28;20718;-90
2022/05/27 08:18:23;;;;;;;6.00;5.00;;;;;;;17.08;82.69;98708.19;4158589;28;21383;-90
2022/05/27 08:20:28;;;;;;;5.30;4.30;;;;;;;17.11;83.23;98710.56;4171298;28;20657;-90
2022/05/27 08:22:32;;;;;;;4.20;3.80;;;;;;;17.11;83.89;98715.84;4175439;28;20637;-91
2022/05/27 08:24:41;;;;;;;5.20;4.43;;;;;;;17.15;82.18;98717.22;4157685;28;20631;-91
2022/05/27 08:26:47;;;;;;;6.30;3.90;;;;;;;17.13;83.82;98714.72;4172781;28;21085;-91
2022/05/27 08:28:50;;;;;;;5.13;4.63;;;;;;;17.14;82.86;98711.13;4174104;28;20633;-91
2022/05/27 08:30:55;;;;;;;5.07;4.40;;;;;;;17.19;82.96;98713.38;4155518;28;20664;-92
2022/05/27 08:32:59;;;;;;;6.00;4.20;;;;;;;17.19;83.36;98713.38;4172045;28;20665;-92
2022/05/27 08:39:51;;;;;;;4.97;4.47;;;;;;;17.31;82.14;98705.28;4164866;28;20646;-94
2022/05/27 08:42:07;;;;;;;7.10;5.10;;;;;;;17.40;82.41;98703.66;4163276;28;20669;-92
2022/05/27 08:44:20;;;;;;;9.17;4.67;;;;;;;17.42;82.55;98702.53;4179013;28;20645;-93
2022/05/27 08:46:31;;;;;;;8.43;3.90;;;;;;;17.49;82.51;98709.81;4175709;28;21305;-93
2022/05/27 08:49:00;;;;;;;5.30;4.57;;;;;;;17.51;83.44;98710.53;4173393;28;21007;-93
2022/05/27 08:51:22;;;;;;;5.70;4.70;;;;;;;17.51;83.26;98712.31;4175611;28;20649;-96
2022/05/27 08:53:33;;;;;;;5.87;4.50;;;;;;;17.54;82.94;98725.25;4156395;28;20683;-94
2022/05/27 09:01:08;;;;;;;6.77;5.23;;;;;;;17.47;81.16;98717.03;4109134;28;21051;-94
2022/05/27 09:03:15;;;;;;;7.60;4.70;;;;;;;17.48;82.50;98713.44;4125512;28;20734;-93
2022/05/27 09:05:56;;;;;;;6.60;4.83;;;;;;;17.49;82.92;98714.25;4114756;28;20722;-93
2022/05/27 09:08:03;;;;;;;9.03;4.70;;;;;;;17.50;82.14;98719.41;4189254;28;20674;-94
2022/05/27 09:10:10;;;;;;;6.33;4.60;;;;;;;17.53;82.20;98729.69;4175936;28;20687;-92
2022/05/27 09:12:35;;;;;;;6.50;4.60;;;;;;;17.51;82.33;98715.81;4173691;28;20738;-95
2022/05/27 09:14:43;;;;;;;5.73;4.73;;;;;;;17.52;81.94;98719.28;4155027;28;20661;-91
2022/05/27 09:17:07;;;;;;;7.23;4.80;;;;;;;17.66;81.91;98718.91;4157984;28;20646;-94
2022/05/27 09:19:26;;;;;;;6.13;4.73;;;;;;;17.85;81.66;98711.91;4152345;28;20641;-94
2022/05/27 09:21:49;;;;;;;5.90;4.53;;;;;;;18.10;81.12;98724.59;4179016;28;20757;-95
2022/05/27 09:24:14;;;;;;;6.03;5.17;;;;;;;18.59;81.79;98722.75;4166109;28;20639;-94
2022/05/27 09:26:20;;;;;;;6.80;5.50;;;;;;;19.00;80.46;98707.44;4153059;28;20641;-91
2022/05/27 09:28:39;;;;;;;8.90;5.27;;;;;;;19.14;77.87;98713.16;4142838;28;21202;-92
2022/05/27 09:30:43;;;;;;;5.47;4.90;;;;;;;19.05;77.92;98710.53;4158248;28;20629;-96
2022/05/27 09:32:54;;;;;;;9.43;4.73;;;;;;;18.92;78.74;98715.25;4164972;28;20620;-94
2022/05/27 09:35:08;;;;;;;5.17;4.67;;;;;;;18.80;78.30;98711.06;4163480;28;21232;-94
2022/05/27 09:37:33;;;;;;;5.83;4.63;;;;;;;18.69;77.51;98702.47;4180519;28;20618;-93
2022/05/27 09:39:39;;;;;;;5.47;4.90;;;;;;;18.61;78.07;98708.44;4184608;28;21259;-94
2022/05/27 09:41:49;;;;;;;6.00;4.50;;;;;;;18.56;78.61;98710.66;4189345;28;20661;-95
2022/05/27 09:44:30;;;;;;;7.73;4.80;;;;;;;18.57;79.70;98711.50;4106154;28;20622;-92
2022/05/27 09:46:36;;;;;;;5.00;4.37;;;;;;;18.64;79.31;98702.88;4164599;28;20630;-93
2022/05/27 09:48:40;;;;;;;8.30;4.73;;;;;;;18.84;79.70;98709.81;4162255;28;20630;-92
2022/05/27 09:50:59;;;;;;;5.17;4.50;;;;;;;18.96;80.02;98696.31;4162533;28;20669;-94
2022/05/27 09:53:11;;;;;;;4.67;4.17;;;;;;;19.02;79.08;98694.94;4183085;28;20644;-94
2022/05/27 09:55:20;;;;;;;4.53;3.50;;;;;;;19.10;76.79;98697.72;4203089;28;20613;-93
2022/05/27 09:57:25;;;;;;;6.03;4.30;;;;;;;19.08;76.60;98697.84;4171346;28;20645;-94
2022/05/27 09:59:39;;;;;;;7.30;4.70;;;;;;;19.14;76.88;98693.78;4155843;28;20643;-93
2022/05/27 10:01:42;;;;;;;27.77;17.70;;;;;;;19.22;76.44;98697.41;4158156;28;20674;-92
2022/05/27 10:03:46;;;;;;;21.90;15.67;;;;;;;19.25;76.29;98701.56;4174055;28;20653;-93
2022/05/27 10:05:57;;;;;;;20.67;13.83;;;;;;;19.20;76.59;98693.22;4186643;28;20627;-95
2022/05/27 10:08:06;;;;;;;13.30;8.33;;;;;;;19.11;76.10;98692.28;4157847;28;20763;-94
2022/05/27 10:10:26;;;;;;;7.70;5.67;;;;;;;19.09;75.95;98696.03;4153803;28;20653;-95
2022/05/27 10:12:31;;;;;;;7.93;5.47;;;;;;;19.00;77.06;98694.19;4176518;28;20994;-93
2022/05/27 10:14:35;;;;;;;6.17;4.40;;;;;;;18.87;76.08;98692.81;4159326;28;20696;-92
2022/05/27 10:16:40;;;;;;;8.13;4.03;;;;;;;18.81;76.70;98696.88;4158804;28;20623;-92
2022/05/27 10:18:45;;;;;;;5.40;4.70;;;;;;;18.74;76.83;98690.47;4162632;28;20637;-93